Time;durP1;ratioP1;P1;durP2;ratioP2;P2;SDS_P1;SDS_P2;PMS_P1;PMS_P2;Temp;Humidity;BMP_temperature;BMP_pressure;BME280_temperature;BME280_humidity;BME280_pressure;Samples;Min_cycle;Max_cycle;Signal;HPM_P1;HPM_P2
2024/02/11 00:00:27;;;;;;;9.73;8.68;;;;;;;9.57;100.00;98586.69;5069502;28;20020;-40
2024/02/11 00:02:53;;;;;;;9.90;8.80;;;;;;;9.57;100.00;98590.22;5069781;28;20067;-40
2024/02/11 00:05:18;;;;;;;10.15;9.13;;;;;;;9.59;100.00;98600.72;5069119;28;20033;-41
2024/02/11 00:07:44;;;;;;;9.23;8.30;;;;;;;9.59;100.00;98606.09;5056573;28;20167;-40
2024/02/11 00:10:09;;;;;;;10.63;9.07;;;;;;;9.62;100.00;98605.56;5055897;28;20032;-41
2024/02/11 00:12:38;;;;;;;10.05;8.23;;;;;;;9.60;100.00;98610.41;5055930;28;20040;-40
2024/02/11 00:15:05;;;;;;;11.57;9.40;;;;;;;9.61;100.00;98620.13;5056467;28;20013;-40
2024/02/11 00:17:34;;;;;;;10.07;9.07;;;;;;;9.58;100.00;98615.28;5056306;28;20021;-40
2024/02/11 00:20:00;;;;;;;9.07;7.95;;;;;;;9.58;100.00;98615.28;5055543;28;20025;-41
2024/02/11 00:22:26;;;;;;;;;;;;;;;9.70;100.00;98610.34;5056591;28;20021;-41
2024/02/11 00:24:53;;;;;;;9.73;8.43;;;;;;;9.64;100.00;98619.56;5055915;28;19911;-40
2024/02/11 00:27:19;;;;;;;9.38;8.48;;;;;;;9.63;100.00;98615.25;5055831;28;20029;-40
2024/02/11 00:29:45;;;;;;;15.02;12.27;;;;;;;9.65;100.00;98619.28;5056012;28;20035;-40
2024/02/11 00:32:11;;;;;;;10.03;9.13;;;;;;;9.65;100.00;98616.59;5056110;28;20098;-40
2024/02/11 00:34:37;;;;;;;39.33;23.95;;;;;;;9.66;100.00;98612.00;5055356;28;20287;-40
2024/02/11 00:37:03;;;;;;;31.33;22.47;;;;;;;9.67;100.00;98614.44;5055798;28;20021;-40
2024/02/11 00:39:28;;;;;;;;;;;;;;;9.76;100.00;98617.31;5055915;28;20039;-40
2024/02/11 00:41:54;;;;;;;12.75;11.43;;;;;;;9.68;100.00;98610.63;5056650;28;19908;-40
2024/02/11 00:44:19;;;;;;;17.15;15.35;;;;;;;9.69;100.00;98609.53;5055640;28;20029;-40
2024/02/11 00:46:46;;;;;;;16.67;15.00;;;;;;;9.62;100.00;98597.47;5055335;28;20029;-41
2024/02/11 00:49:11;;;;;;;11.32;10.23;;;;;;;9.68;100.00;98610.63;5055385;28;20259;-46
2024/02/11 00:51:37;;;;;;;14.77;12.90;;;;;;;9.70;100.00;98602.25;5055743;28;20043;-40
2024/02/11 00:54:03;;;;;;;12.63;11.43;;;;;;;9.68;100.00;98596.34;5055242;28;20359;-41
2024/02/11 00:56:30;;;;;;;10.88;9.82;;;;;;;9.65;100.00;98596.88;5055910;28;20017;-41
2024/02/11 00:58:56;;;;;;;10.48;9.48;;;;;;;9.60;100.00;98592.31;5055238;28;20104;-40
2024/02/11 01:01:22;;;;;;;10.75;9.77;;;;;;;9.63;100.00;98591.78;5055311;28;20025;-40
2024/02/11 01:03:56;;;;;;;19.05;17.05;;;;;;;9.55;100.00;98578.88;5054862;28;20020;-40
2024/02/11 01:06:22;;;;;;;11.63;10.50;;;;;;;9.62;100.00;98594.75;5054862;28;20112;-40
2024/02/11 01:08:49;;;;;;;;;;;;;;;9.70;100.00;98586.88;5055194;28;20021;-40
2024/02/11 01:11:17;;;;;;;11.10;10.15;;;;;;;9.62;100.00;98592.06;5055339;28;19912;-41
2024/02/11 01:13:42;;;;;;;11.57;10.48;;;;;;;9.57;100.00;98584.81;5054923;28;20119;-41
2024/02/11 01:16:08;;;;;;;11.93;10.82;;;;;;;9.59;100.00;98595.31;5055191;28;20057;-40
2024/02/11 01:18:33;;;;;;;10.75;9.68;;;;;;;9.59;100.00;98596.13;5054402;28;20024;-40
2024/02/11 01:20:58;;;;;;;10.70;9.73;;;;;;;9.57;100.00;98597.50;5055152;28;20021;-40
2024/02/11 01:23:24;;;;;;;18.30;16.53;;;;;;;9.54;100.00;98594.25;5054900;28;20039;-40
2024/02/11 01:25:49;;;;;;;14.23;12.93;;;;;;;9.55;100.00;98600.44;5054479;28;20263;-40
2024/02/11 01:28:15;;;;;;;12.27;11.07;;;;;;;9.55;100.00;98600.44;5054680;28;20247;-40
2024/02/11 01:30:41;;;;;;;12.15;11.05;;;;;;;9.48;100.00;98587.28;5054356;28;20095;-40
2024/02/11 01:33:09;;;;;;;10.80;9.70;;;;;;;9.48;100.00;98583.78;5054925;28;20051;-40
2024/02/11 01:35:34;;;;;;;19.55;17.77;;;;;;;9.55;100.00;98595.06;5054161;28;20028;-41
2024/02/11 01:38:00;;;;;;;12.57;10.90;;;;;;;9.56;100.00;98596.66;5054858;28;20025;-40
2024/02/11 01:40:26;;;;;;;11.38;10.30;;;;;;;9.55;100.00;98595.84;5054943;28;20412;-41
2024/02/11 01:42:55;;;;;;;12.77;11.65;;;;;;;9.57;100.00;98602.91;5054960;28;20104;-40
2024/02/11 01:45:21;;;;;;;12.13;10.95;;;;;;;9.52;100.00;98595.63;5054285;28;20449;-41
2024/02/11 01:47:47;;;;;;;11.50;10.52;;;;;;;9.53;100.00;98598.03;5054817;28;20032;-40
2024/02/11 01:50:20;;;;;;;12.55;10.63;;;;;;;9.50;100.00;98593.19;5055013;28;20021;-40
2024/02/11 01:52:47;;;;;;;11.43;10.40;;;;;;;9.50;100.00;98598.59;5053953;28;20028;-40
2024/02/11 01:55:17;;;;;;;12.10;10.90;;;;;;;9.52;100.00;98596.44;5054249;28;20041;-40
2024/02/11 01:57:43;;;;;;;15.07;13.70;;;;;;;9.52;100.00;98596.44;5054401;28;20453;-40
2024/02/11 02:00:09;;;;;;;12.45;11.32;;;;;;;9.52;100.00;98593.75;5053733;28;20028;-40
2024/02/11 02:02:37;;;;;;;14.68;13.32;;;;;;;9.48;100.00;98587.28;5054273;28;20036;-40
2024/02/11 02:05:02;;;;;;;12.13;11.13;;;;;;;9.51;100.00;98588.59;5053977;28;20476;-40
2024/02/11 02:07:28;;;;;;;12.47;11.33;;;;;;;9.52;100.00;98584.84;5054036;28;20057;-40
2024/02/11 02:09:54;;;;;;;11.70;10.60;;;;;;;9.53;100.00;98581.84;5053952;28;20270;-40
2024/02/11 02:12:20;;;;;;;12.15;10.95;;;;;;;9.52;100.00;98592.94;5054386;28;20071;-41
2024/02/11 02:14:48;;;;;;;11.27;9.90;;;;;;;9.49;100.00;98591.59;5053448;28;20025;-40
2024/02/11 02:17:13;;;;;;;11.57;10.35;;;;;;;9.49;100.00;98594.28;5054633;28;20070;-40
2024/02/11 02:19:38;;;;;;;11.77;10.60;;;;;;;9.47;100.00;98585.69;5053422;28;20017;-41
2024/02/11 02:22:04;;;;;;;12.40;11.10;;;;;;;9.40;100.00;98566.28;5054095;28;20291;-41
2024/02/11 02:24:29;;;;;;;11.68;10.55;;;;;;;9.48;100.00;98578.38;5054499;28;20104;-41
2024/02/11 02:26:55;;;;;;;11.17;10.17;;;;;;;9.48;100.00;98567.59;5053477;28;20021;-40
2024/02/11 02:29:20;;;;;;;13.10;11.40;;;;;;;9.44;100.00;98567.34;5053896;28;20293;-40
2024/02/11 02:31:45;;;;;;;12.30;11.27;;;;;;;9.40;100.00;98549.28;5053651;28;20025;-40
2024/02/11 02:34:11;;;;;;;11.80;10.80;;;;;;;9.38;100.00;98546.06;5053510;28;20028;-41
2024/02/11 02:36:37;;;;;;;13.43;11.60;;;;;;;9.43;100.00;98567.63;5053552;28;20298;-40
2024/02/11 02:39:02;;;;;;;;;;;;;;;9.52;100.00;98566.75;5053881;28;20032;-40
2024/02/11 02:41:28;;;;;;;10.98;9.98;;;;;;;9.36;100.00;98549.03;5053472;28;19905;-40
2024/02/11 02:43:53;;;;;;;11.93;10.75;;;;;;;9.36;100.00;98549.03;5054506;28;20029;-40
2024/02/11 02:46:19;;;;;;;12.03;10.87;;;;;;;9.37;100.00;98558.75;5053468;28;20029;-40
2024/02/11 02:48:44;;;;;;;11.60;10.50;;;;;;;9.38;100.00;98557.66;5053144;28;20274;-40
2024/02/11 02:51:10;;;;;;;12.07;10.97;;;;;;;9.38;100.00;98562.25;5053068;28;20074;-40
2024/02/11 02:53:35;;;;;;;12.65;11.55;;;;;;;9.28;100.00;98547.75;5053307;28;20036;-40
2024/02/11 02:56:00;;;;;;;12.32;11.23;;;;;;;9.35;100.00;98550.13;5054129;28;20037;-40
2024/02/11 02:58:26;;;;;;;12.10;11.00;;;;;;;9.36;100.00;98562.50;5053325;28;20025;-40
2024/02/11 03:00:51;;;;;;;13.23;11.03;;;;;;;9.37;100.00;98558.75;5053657;28;20013;-40
2024/02/11 03:03:17;;;;;;;11.60;10.50;;;;;;;9.37;100.00;98560.63;5054072;28;20108;-40
2024/02/11 03:05:45;;;;;;;13.55;12.05;;;;;;;9.36;100.00;98556.31;5053164;28;20334;-41
2024/02/11 03:08:12;;;;;;;12.18;11.13;;;;;;;9.36;100.00;98559.81;5053436;28;20450;-41
2024/02/11 03:10:38;;;;;;;12.23;11.13;;;;;;;9.33;100.00;98562.28;5053433;28;20057;-41
2024/02/11 03:13:03;;;;;;;11.73;10.73;;;;;;;9.34;100.00;98563.91;5053219;28;20469;-41
2024/02/11 03:15:29;;;;;;;12.32;11.25;;;;;;;9.29;100.00;98554.75;5052791;28;20024;-41
2024/02/11 03:17:54;;;;;;;13.65;12.45;;;;;;;9.26;100.00;98546.41;5053421;28;20021;-41
2024/02/11 03:20:20;;;;;;;13.55;12.23;;;;;;;9.29;100.00;98543.97;5053147;28;20107;-41
2024/02/11 03:22:45;;;;;;;12.73;11.43;;;;;;;9.30;100.00;98544.75;5053932;28;20025;-41
2024/02/11 03:25:12;;;;;;;12.98;11.77;;;;;;;9.29;100.00;98546.66;5053029;28;20456;-41
2024/02/11 03:27:39;;;;;;;12.60;11.50;;;;;;;9.36;100.00;98556.31;5052774;28;20111;-41
2024/02/11 03:30:08;;;;;;;13.77;12.40;;;;;;;9.36;100.00;98554.44;5053758;28;20365;-41
2024/02/11 03:32:36;;;;;;;12.52;11.25;;;;;;;9.32;100.00;98556.09;5052659;28;20078;-41
2024/02/11 03:35:04;;;;;;;12.52;11.43;;;;;;;9.33;100.00;98555.00;5052881;28;20021;-41
2024/02/11 03:37:32;;;;;;;14.05;12.65;;;;;;;9.25;100.00;98552.88;5053723;28;20021;-41
2024/02/11 03:39:57;;;;;;;12.90;11.70;;;;;;;9.31;100.00;98562.53;5053149;28;20024;-41
2024/02/11 03:42:22;;;;;;;13.17;11.97;;;;;;;9.34;100.00;98561.19;5056132;28;20138;-41
2024/02/11 03:44:48;;;;;;;12.47;11.17;;;;;;;9.36;100.00;98567.09;5056439;28;20282;-41
2024/02/11 03:47:13;;;;;;;13.23;12.00;;;;;;;9.36;100.00;98567.09;5057019;28;20025;-41
2024/02/11 03:49:38;;;;;;;12.83;11.67;;;;;;;9.28;100.00;98558.53;5056585;28;20021;-41
2024/02/11 03:52:04;;;;;;;13.57;12.37;;;;;;;9.34;100.00;98570.09;5056296;28;20028;-41
2024/02/11 03:54:29;;;;;;;12.57;11.50;;;;;;;9.34;100.00;98578.19;5056383;28;20045;-41
2024/02/11 03:56:54;;;;;;;12.67;11.57;;;;;;;9.35;100.00;98568.19;5057214;28;20029;-41
2024/02/11 03:59:20;;;;;;;12.53;11.33;;;;;;;9.35;100.00;98574.41;5056493;28;20039;-41
2024/02/11 04:01:46;;;;;;;12.38;11.18;;;;;;;9.35;100.00;98574.41;5056092;28;20024;-41
2024/02/11 04:04:12;;;;;;;12.50;11.27;;;;;;;9.33;100.00;98571.19;5056525;28;20029;-39
2024/02/11 04:06:38;;;;;;;13.32;11.93;;;;;;;9.35;100.00;98579.78;5056800;28;20023;-39
2024/02/11 04:09:04;;;;;;;12.60;11.40;;;;;;;9.34;100.00;98580.88;5055939;28;20016;-40
2024/02/11 04:11:30;;;;;;;14.02;12.50;;;;;;;9.35;100.00;98579.00;5056224;28;20029;-40
2024/02/11 04:13:56;;;;;;;12.48;11.38;;;;;;;9.33;100.00;98584.66;5055858;28;20032;-41
2024/02/11 04:16:22;;;;;;;13.38;12.18;;;;;;;9.32;100.00;98574.13;5056612;28;20389;-40
2024/02/11 04:18:49;;;;;;;13.20;12.00;;;;;;;9.33;100.00;98578.47;5055961;28;20067;-40
2024/02/11 04:21:20;;;;;;;13.57;12.25;;;;;;;9.32;100.00;98585.75;5056283;28;20402;-41
2024/02/11 04:23:46;;;;;;;13.65;12.35;;;;;;;9.26;100.00;98570.66;5056778;28;20107;-40
2024/02/11 04:26:13;;;;;;;13.63;12.43;;;;;;;9.29;100.00;98575.50;5056667;28;20040;-41
2024/02/11 04:28:39;;;;;;;14.68;13.25;;;;;;;9.27;100.00;98580.38;5055777;28;20025;-40
2024/02/11 04:31:09;;;;;;;14.35;12.95;;;;;;;9.32;100.00;98590.31;5055771;28;20075;-41
2024/02/11 04:33:41;;;;;;;15.38;13.77;;;;;;;9.03;100.00;98543.28;5056075;28;20075;-41
2024/02/11 04:36:09;;;;;;;15.07;13.65;;;;;;;9.30;100.00;98590.59;5056337;28;20025;-41
2024/02/11 04:38:34;;;;;;;15.55;14.02;;;;;;;9.28;100.00;98590.09;5056454;28;20033;-41
2024/02/11 04:41:00;;;;;;;15.60;14.02;;;;;;;9.29;100.00;98594.41;5055841;28;20078;-41
2024/02/11 04:43:29;;;;;;;16.98;15.07;;;;;;;9.28;100.00;98596.28;5055289;28;20031;-41
2024/02/11 04:45:56;;;;;;;17.75;15.95;;;;;;;9.27;100.00;98594.69;5056290;28;20032;-41
2024/02/11 04:48:24;;;;;;;17.80;16.10;;;;;;;9.28;100.00;98601.69;5055487;28;20446;-41
2024/02/11 04:50:50;;;;;;;17.75;15.90;;;;;;;9.19;100.00;98591.75;5055134;28;20029;-41
2024/02/11 04:53:17;;;;;;;17.67;15.98;;;;;;;9.25;100.00;98602.22;5054965;28;20032;-41
2024/02/11 04:55:46;;;;;;;16.90;15.35;;;;;;;9.25;100.00;98604.91;5055761;28;20045;-41
2024/02/11 04:58:15;;;;;;;17.27;15.57;;;;;;;9.26;100.00;98603.84;5055318;28;20124;-40
2024/02/11 05:00:45;;;;;;;15.35;13.90;;;;;;;9.26;100.00;98614.63;5055937;28;20384;-40
2024/02/11 05:03:11;;;;;;;15.70;14.20;;;;;;;9.26;100.00;98611.91;5055714;28;20020;-39
2024/02/11 05:05:41;;;;;;;15.85;14.35;;;;;;;9.26;100.00;98609.22;5054813;28;20035;-40
2024/02/11 05:08:10;;;;;;;16.35;14.85;;;;;;;9.27;100.00;98626.22;5055887;28;20036;-39
2024/02/11 05:10:39;;;;;;;15.23;13.75;;;;;;;9.28;100.00;98630.53;5054745;28;20095;-40
2024/02/11 05:13:05;;;;;;;15.25;13.85;;;;;;;9.26;100.00;98627.31;5055622;28;20032;-40
2024/02/11 05:15:34;;;;;;;14.43;13.13;;;;;;;9.26;100.00;98638.88;5054891;28;20024;-40
2024/02/11 05:18:02;;;;;;;13.13;12.00;;;;;;;9.22;100.00;98634.31;5054444;28;20438;-40
2024/02/11 05:20:28;;;;;;;12.00;10.90;;;;;;;9.17;100.00;98631.66;5054875;28;20099;-40
2024/02/11 05:22:55;;;;;;;9.20;8.40;;;;;;;9.14;100.00;98638.41;5055398;28;20044;-40
2024/02/11 05:25:22;;;;;;;9.10;8.27;;;;;;;9.11;100.00;98651.63;5055263;28;20029;-40
2024/02/11 05:27:55;;;;;;;9.10;8.30;;;;;;;9.09;100.00;98661.88;5054385;28;20028;-41
2024/02/11 05:30:23;;;;;;;9.13;8.23;;;;;;;9.03;100.00;98661.91;5054283;28;20059;-41
2024/02/11 05:32:50;;;;;;;8.65;7.85;;;;;;;8.99;100.00;98662.72;5054637;28;20036;-41
2024/02/11 05:35:17;;;;;;;9.05;8.20;;;;;;;8.95;100.00;98673.25;5055227;28;20032;-40
2024/02/11 05:37:44;;;;;;;9.18;8.27;;;;;;;8.88;100.00;98672.72;5054850;28;20056;-40
2024/02/11 05:40:10;;;;;;;8.52;7.68;;;;;;;8.86;100.00;98687.53;5054704;28;20092;-40
2024/02/11 05:42:40;;;;;;;9.25;8.35;;;;;;;8.75;100.00;98690.25;5054486;28;20035;-40
2024/02/11 05:45:07;;;;;;;8.95;8.10;;;;;;;8.68;100.00;98687.00;5054328;28;20023;-40
2024/02/11 05:47:33;;;;;;;8.77;7.88;;;;;;;8.67;100.00;98700.75;5054243;28;20024;-40
2024/02/11 05:49:59;;;;;;;9.57;8.57;;;;;;;8.64;100.00;98701.31;5054777;28;20051;-39
2024/02/11 05:52:24;;;;;;;9.70;8.75;;;;;;;8.43;100.00;98690.53;5054278;28;20032;-40
2024/02/11 05:54:50;;;;;;;9.30;8.27;;;;;;;8.45;100.00;98701.84;5054238;28;20036;-40
2024/02/11 05:57:15;;;;;;;10.32;8.63;;;;;;;8.45;100.00;98707.25;5054244;28;20017;-40
2024/02/11 05:59:41;;;;;;;9.40;8.43;;;;;;;8.47;100.00;98718.53;5053881;28;20025;-40
2024/02/11 06:02:06;;;;;;;9.68;8.68;;;;;;;8.42;100.00;98723.13;5054651;28;20017;-40
2024/02/11 06:04:31;;;;;;;10.70;9.33;;;;;;;8.39;100.00;98724.44;5054103;28;20051;-40
2024/02/11 06:06:57;;;;;;;10.60;9.60;;;;;;;8.37;100.00;98741.97;5053708;28;20287;-40
2024/02/11 06:09:24;;;;;;;11.30;10.10;;;;;;;8.28;100.00;98749.72;5053939;28;20025;-41
2024/02/11 06:11:49;;;;;;;;;;;;;;;8.33;100.00;98741.66;5054978;28;20373;-41
2024/02/11 06:14:14;;;;;;;13.68;10.98;;;;;;;8.16;100.00;98752.69;5053848;28;19909;-41
2024/02/11 06:16:39;;;;;;;12.47;10.93;;;;;;;8.08;100.00;98745.13;5054184;28;20029;-41
2024/02/11 06:19:06;;;;;;;13.27;11.23;;;;;;;7.92;100.00;98730.00;5053811;28;20040;-41
2024/02/11 06:21:32;;;;;;;12.32;11.13;;;;;;;8.05;100.00;98758.28;5054067;28;20075;-41
2024/02/11 06:23:57;;;;;;;12.98;11.38;;;;;;;8.00;100.00;98762.59;5053825;28;20453;-40
2024/02/11 06:26:22;;;;;;;11.53;10.37;;;;;;;8.00;100.00;98754.53;5054051;28;20025;-41
2024/02/11 06:28:48;;;;;;;13.13;11.73;;;;;;;7.96;100.00;98760.72;5053941;28;20293;-41
2024/02/11 06:31:13;;;;;;;13.27;11.70;;;;;;;7.93;100.00;98759.34;5053937;28;20458;-41
2024/02/11 06:33:40;;;;;;;15.02;11.75;;;;;;;7.89;100.00;98760.13;5053551;28;20270;-41
2024/02/11 06:36:06;;;;;;;14.27;11.18;;;;;;;7.90;100.00;98762.53;5054213;28;20057;-41
2024/02/11 06:38:32;;;;;;;13.07;11.70;;;;;;;7.90;100.00;98781.38;5053594;28;20108;-41
2024/02/11 06:40:57;;;;;;;13.88;11.75;;;;;;;7.91;100.00;98788.41;5054023;28;20032;-41
2024/02/11 06:43:23;;;;;;;12.75;11.18;;;;;;;7.82;100.00;98776.53;5054027;28;20074;-40
2024/02/11 06:45:48;;;;;;;13.35;11.70;;;;;;;7.87;100.00;98791.88;5053492;28;20100;-41
2024/02/11 06:48:14;;;;;;;13.25;10.57;;;;;;;7.86;100.00;98799.16;5053475;28;20017;-41
2024/02/11 06:50:40;;;;;;;13.65;10.90;;;;;;;7.85;100.00;98804.78;5053030;28;20036;-41
2024/02/11 06:53:07;;;;;;;13.60;11.00;;;;;;;7.87;100.00;98808.03;5053348;28;20021;-40
2024/02/11 06:55:33;;;;;;;16.38;12.95;;;;;;;7.86;100.00;98817.19;5053641;28;20145;-40
2024/02/11 06:57:59;;;;;;;15.98;12.68;;;;;;;7.81;100.00;98827.91;5053630;28;20024;-40
2024/02/11 07:00:25;;;;;;;15.63;12.95;;;;;;;7.77;100.00;98830.31;5053516;28;20028;-40
2024/02/11 07:02:54;;;;;;;13.63;11.43;;;;;;;7.81;100.00;98844.03;5053787;28;20072;-40
2024/02/11 07:05:20;;;;;;;14.20;11.95;;;;;;;7.74;100.00;98852.34;5053485;28;20361;-40
2024/02/11 07:07:45;;;;;;;14.63;11.60;;;;;;;7.75;100.00;98857.47;5053467;28;20021;-40
2024/02/11 07:10:12;;;;;;;13.57;11.38;;;;;;;7.74;100.00;98868.50;5053769;28;20107;-40
2024/02/11 07:12:38;;;;;;;;;;;;;;;7.83;100.00;98861.56;5053262;28;20365;-41
2024/02/11 07:15:04;;;;;;;13.23;10.23;;;;;;;7.74;100.00;98868.50;5053620;28;20312;-40
2024/02/11 07:17:30;;;;;;;11.10;9.23;;;;;;;7.75;100.00;98870.13;5056732;28;20400;-40
2024/02/11 07:19:56;;;;;;;11.38;9.07;;;;;;;7.77;100.00;98876.06;5057135;28;20091;-40
2024/02/11 07:22:21;;;;;;;12.55;8.05;;;;;;;7.72;100.00;98876.03;5057680;28;20025;-41
2024/02/11 07:24:47;;;;;;;10.10;8.45;;;;;;;7.71;100.00;98879.78;5057627;28;20373;-40
2024/02/11 07:27:14;;;;;;;17.73;10.13;;;;;;;7.73;100.00;98883.03;5057061;28;20419;-40
2024/02/11 07:29:40;;;;;;;12.57;8.43;;;;;;;7.69;100.00;98887.31;5056947;28;20070;-40
2024/02/11 07:32:05;;;;;;;11.20;7.90;;;;;;;7.74;100.00;98887.34;5056950;28;20108;-40
2024/02/11 07:34:31;;;;;;;9.57;7.37;;;;;;;7.68;100.00;98883.81;5056834;28;20104;-40
2024/02/11 07:37:02;;;;;;;9.68;6.82;;;;;;;7.74;100.00;98895.41;5056620;28;20017;-40
2024/02/11 07:39:31;;;;;;;11.63;6.90;;;;;;;7.72;100.00;98897.56;5057092;28;20529;-40
2024/02/11 07:41:57;;;;;;;10.85;6.65;;;;;;;7.70;100.00;98894.31;5056468;28;20056;-40
2024/02/11 07:44:23;;;;;;;12.50;6.78;;;;;;;7.72;100.00;98901.06;5056670;28;20020;-40
2024/02/11 07:46:49;;;;;;;12.43;6.60;;;;;;;7.71;100.00;98901.28;5056390;28;20028;-40
2024/02/11 07:49:14;;;;;;;9.75;6.25;;;;;;;7.67;100.00;98894.84;5056317;28;20021;-40
2024/02/11 07:51:44;;;;;;;8.97;6.23;;;;;;;7.70;100.00;98899.69;5057235;28;20025;-40
2024/02/11 07:54:12;;;;;;;8.95;5.70;;;;;;;7.73;100.00;98901.88;5056331;28;20263;-40
2024/02/11 07:56:43;;;;;;;10.98;6.13;;;;;;;7.79;100.00;98908.88;5057022;28;20025;-41
2024/02/11 07:59:11;;;;;;;10.90;5.68;;;;;;;7.79;100.00;98922.34;5056694;28;20017;-41
2024/02/11 08:01:37;;;;;;;11.27;6.18;;;;;;;7.83;100.00;98923.44;5056912;28;20489;-43
2024/02/11 08:04:03;;;;;;;13.35;6.85;;;;;;;7.77;100.00;98921.00;5056053;28;20059;-41
2024/02/11 08:06:29;;;;;;;13.68;8.20;;;;;;;7.73;100.00;98912.63;5057468;28;20357;-41
2024/02/11 08:08:54;;;;;;;17.48;9.02;;;;;;;7.80;100.00;98923.16;5056268;28;20150;-40
2024/02/11 08:11:20;;;;;;;10.43;7.03;;;;;;;7.82;100.00;98931.78;5056347;28;20025;-41
2024/02/11 08:13:46;;;;;;;;;;;;;;;7.94;100.00;98932.38;5056590;28;20369;-41
2024/02/11 08:16:12;;;;;;;12.75;7.10;;;;;;;7.83;100.00;98928.84;5057180;28;19908;-41
2024/02/11 08:18:38;;;;;;;11.82;7.28;;;;;;;7.86;100.00;98933.72;5056911;28;20412;-41
2024/02/11 08:21:04;;;;;;;13.95;6.93;;;;;;;7.87;100.00;98932.63;5056336;28;20025;-41
2024/02/11 08:23:32;;;;;;;11.60;6.78;;;;;;;7.88;100.00;98939.63;5056564;28;20021;-41
2024/02/11 08:25:58;;;;;;;14.75;6.93;;;;;;;7.83;100.00;98942.28;5055931;28;20025;-41
2024/02/11 08:28:23;;;;;;;15.15;7.65;;;;;;;7.82;100.00;98939.88;5055211;28;20021;-41
2024/02/11 08:30:48;;;;;;;10.43;6.70;;;;;;;7.88;100.00;98954.97;5056396;28;20075;-41
2024/02/11 08:33:15;;;;;;;13.00;7.67;;;;;;;7.78;100.00;98947.63;5055880;28;20263;-41
2024/02/11 08:35:40;;;;;;;;;;;;;;;8.02;100.00;98974.16;5056400;28;20086;-40
2024/02/11 08:38:05;;;;;;;13.18;7.22;;;;;;;7.95;100.00;98972.53;5055674;28;20341;-40
2024/02/11 08:40:31;;;;;;;13.43;7.63;;;;;;;7.95;100.00;98964.44;5056186;28;20070;-40
2024/02/11 08:42:56;;;;;;;17.20;7.78;;;;;;;7.93;100.00;98963.06;5055900;28;20131;-40
2024/02/11 08:45:22;;;;;;;12.27;6.60;;;;;;;7.99;100.00;98978.97;5055561;28;20029;-40
2024/02/11 08:47:48;;;;;;;13.20;6.97;;;;;;;8.01;100.00;98970.66;5055794;28;20262;-40
2024/02/11 08:50:14;;;;;;;15.32;7.95;;;;;;;8.05;100.00;98977.13;5055766;28;20457;-40
2024/02/11 08:52:40;;;;;;;13.77;7.18;;;;;;;8.09;100.00;98977.44;5055748;28;20021;-40
2024/02/11 08:55:06;;;;;;;17.73;7.90;;;;;;;8.06;100.00;98978.78;5055123;28;20126;-40
2024/02/11 08:57:31;;;;;;;13.90;7.63;;;;;;;8.05;100.00;98973.63;5055912;28;20052;-40
2024/02/11 08:59:56;;;;;;;15.73;7.60;;;;;;;8.05;100.00;98981.72;5055590;28;20532;-40
2024/02/11 09:02:25;;;;;;;15.90;6.70;;;;;;;8.10;100.00;98987.97;5055866;28;20248;-41
2024/02/11 09:04:50;;;;;;;12.73;7.05;;;;;;;8.12;100.00;98988.50;5055398;28;20071;-40
2024/02/11 09:07:18;;;;;;;15.17;7.03;;;;;;;8.09;100.00;98977.44;5055770;28;20449;-47
2024/02/11 09:09:43;;;;;;;17.17;7.30;;;;;;;8.12;100.00;98991.19;5055041;28;20271;-40
2024/02/11 09:12:09;;;;;;;16.40;8.03;;;;;;;8.05;100.00;98976.31;5055684;28;20017;-41
2024/02/11 09:14:37;;;;;;;12.88;7.68;;;;;;;8.10;100.00;98997.88;5054888;28;20035;-40
2024/02/11 09:17:02;;;;;;;16.30;8.27;;;;;;;8.13;100.00;98994.69;5055449;28;20025;-40
2024/02/11 09:19:28;;;;;;;15.00;7.72;;;;;;;8.11;100.00;98999.53;5055487;28;20455;-40
2024/02/11 09:21:54;;;;;;;16.17;8.52;;;;;;;8.11;100.00;99002.22;5055198;28;20138;-40
2024/02/11 09:24:20;;;;;;;12.48;7.30;;;;;;;8.07;100.00;98993.03;5055090;28;20048;-40
2024/02/11 09:26:45;;;;;;;15.43;7.75;;;;;;;8.14;100.00;99004.38;5055401;28;20036;-40
2024/02/11 09:29:11;;;;;;;15.27;7.73;;;;;;;8.17;100.00;99004.69;5054798;28;20445;-40
2024/02/11 09:31:40;;;;;;;17.83;8.97;;;;;;;8.19;100.00;99004.41;5054807;28;20289;-41
2024/02/11 09:34:05;;;;;;;16.42;8.10;;;;;;;8.17;100.00;99010.06;5054635;28;20025;-41
2024/02/11 09:36:33;;;;;;;12.63;7.57;;;;;;;8.24;100.00;99010.63;5054854;28;20330;-41
2024/02/11 09:38:58;;;;;;;18.73;8.30;;;;;;;8.23;100.00;99005.53;5053756;28;20029;-41
2024/02/11 09:41:28;;;;;;;15.70;7.32;;;;;;;8.26;100.00;99005.00;5055145;28;20163;-41
2024/02/11 09:43:56;;;;;;;15.68;7.57;;;;;;;8.30;100.00;99016.09;5054434;28;20155;-41
2024/02/11 09:46:23;;;;;;;18.67;8.02;;;;;;;8.25;100.00;99004.22;5054437;28;20402;-41
2024/02/11 09:48:55;;;;;;;16.02;8.48;;;;;;;8.29;100.00;99017.13;5054678;28;20033;-41
2024/02/11 09:51:25;;;;;;;14.13;7.22;;;;;;;8.26;100.00;99010.41;5054580;28;20056;-41
2024/02/11 09:53:55;;;;;;;15.77;7.22;;;;;;;8.31;100.00;99029.28;5054659;28;20079;-41
2024/02/11 09:56:21;;;;;;;17.73;7.07;;;;;;;8.31;100.00;99023.88;5055111;28;20037;-41
2024/02/11 09:58:46;;;;;;;14.15;7.00;;;;;;;8.36;100.00;99026.66;5054185;28;20027;-41
2024/02/11 10:01:13;;;;;;;11.83;6.50;;;;;;;8.40;100.00;99022.38;5054237;28;20052;-41
2024/02/11 10:03:40;;;;;;;16.95;7.15;;;;;;;8.37;100.00;99020.19;5054416;28;20017;-41
2024/02/11 10:06:09;;;;;;;12.40;7.20;;;;;;;8.39;100.00;99028.78;5054178;28;20040;-41
2024/02/11 10:08:36;;;;;;;12.73;6.60;;;;;;;8.40;100.00;99035.03;5053753;28;20381;-41
2024/02/11 10:11:03;;;;;;;16.52;8.35;;;;;;;8.43;100.00;99024.50;5054273;28;20295;-40
2024/02/11 10:13:29;;;;;;;15.30;6.85;;;;;;;8.48;100.00;99029.13;5054323;28;20025;-41
2024/02/11 10:15:55;;;;;;;14.45;6.82;;;;;;;8.48;100.00;99029.13;5054046;28;20074;-41
2024/02/11 10:18:20;;;;;;;14.88;7.18;;;;;;;8.48;100.00;99043.41;5053933;28;20032;-41
2024/02/11 10:20:47;;;;;;;15.90;6.93;;;;;;;8.44;100.00;99025.31;5054103;28;20099;-41
2024/02/11 10:23:14;;;;;;;14.73;6.88;;;;;;;8.50;100.00;99035.88;5053584;28;20373;-41
2024/02/11 10:25:39;;;;;;;12.55;6.97;;;;;;;8.46;100.00;99029.38;5053754;28;20059;-41
2024/02/11 10:28:06;;;;;;;14.13;6.73;;;;;;;8.51;100.00;99050.16;5054315;28;20048;-41
2024/02/11 10:30:34;;;;;;;17.25;6.63;;;;;;;8.46;100.00;99040.16;5053376;28;20264;-41
2024/02/11 10:33:01;;;;;;;12.93;6.63;;;;;;;8.56;100.00;99041.31;5054237;28;20153;-40
2024/02/11 10:35:28;;;;;;;14.93;6.93;;;;;;;8.58;100.00;99044.53;5053526;28;20074;-41
2024/02/11 10:37:54;;;;;;;13.88;6.03;;;;;;;8.56;100.00;99041.31;5053582;28;20025;-41
2024/02/11 10:40:19;;;;;;;13.60;6.78;;;;;;;8.62;100.00;99046.44;5053204;28;20104;-41
2024/02/11 10:42:45;;;;;;;15.05;7.95;;;;;;;8.66;100.00;99049.44;5053212;28;20021;-41
2024/02/11 10:45:11;;;;;;;15.88;6.43;;;;;;;8.66;100.00;99052.94;5053977;28;20043;-41
2024/02/11 10:47:36;;;;;;;13.88;6.50;;;;;;;8.71;100.00;99052.97;5053771;28;20029;-41
2024/02/11 10:50:03;;;;;;;13.68;5.85;;;;;;;8.69;100.00;99062.41;5053234;28;20094;-41
2024/02/11 10:52:36;;;;;;;13.65;5.85;;;;;;;8.71;100.00;99055.66;5053450;28;20036;-41
2024/02/11 10:55:03;;;;;;;12.95;6.15;;;;;;;8.77;100.00;99064.56;5053545;28;20040;-41
2024/02/11 10:57:40;;;;;;;15.73;6.55;;;;;;;8.76;100.00;99063.75;5053075;28;20024;-41
2024/02/11 11:00:08;;;;;;;18.42;6.47;;;;;;;8.80;100.00;99068.63;5053316;28;20031;-41
2024/02/11 11:02:36;;;;;;;13.38;6.22;;;;;;;8.84;100.00;99072.44;5054168;28;20032;-41
2024/02/11 11:05:06;;;;;;;12.45;5.95;;;;;;;8.83;100.00;99068.91;5053528;28;20365;-42
2024/02/11 11:07:36;;;;;;;14.95;6.47;;;;;;;8.87;100.00;99070.00;5053791;28;20028;-41
2024/02/11 11:10:03;;;;;;;12.13;5.40;;;;;;;8.91;100.00;99067.59;5053206;28;20027;-39
2024/02/11 11:12:28;;;;;;;14.32;6.15;;;;;;;8.90;100.00;99072.19;5053742;28;20025;-40
2024/02/11 11:14:57;;;;;;;12.98;5.95;;;;;;;8.95;100.00;99061.41;5053124;28;20021;-40
2024/02/11 11:17:23;;;;;;;17.10;7.13;;;;;;;9.01;100.00;99062.25;5053773;28;20028;-41
2024/02/11 11:19:49;;;;;;;16.00;5.82;;;;;;;9.05;100.00;99076.03;5053122;28;20029;-41